El-djazair II — 7TBR — position and weather

sailwx.info

Track history (hours):
 
Tides and Currents Weather Stations Pressure Air Temp Water Temp Dewpoint Dewpoint Depression Visibility Wind Speed Wind Dir Waves Ship Positions

El-djazair II

Last reported at 2014-Dec-21 00:32 UTC. Time now 2014-Dec-21 19:28 UTC.
Position N 37°49' W 000°20'.

Length 146 m; draft 6.3 m.

Type: Ship. MMSI: 605026190.

Date/timePositionNaut miles runAvg speedWind from/ knotsBaromVisibWave heightAir tempDewpointWater temp
2014-Dec-21 00:32N 37°49' W 000°20'13 0.6
2014-Dec-20 01:33N 38°02' W 000°22'2222.2
2014-Dec-20 00:33N 37°40' W 000°24'2322.3
2014-Dec-19 23:32N 37°17' W 000°26'2222.9
2014-Dec-19 22:33N 36°55' W 000°29'2322.9
2014-Dec-19 21:33N 36°32' W 000°32'2522.9
2014-Dec-19 20:29N 36°07' W 000°34'114 2.8
2014-Dec-18 04:33N 37°59' W 000°08'2420.3
2014-Dec-18 03:24N 37°36' W 000°13'  
2014-Dec-15 23:20N 37°37' W 000°26'1620.7
2014-Dec-15 22:34N 37°53' W 000°24'13 0.7
2014-Dec-15 04:23N 38°00' W 000°10'1721.0
2014-Dec-15 03:33N 37°45' W 000°21'2020.0
2014-Dec-15 02:33N 37°29' W 000°37'2020.1
2014-Dec-15 01:33N 37°17' W 000°56'  
2014-Dec-12 07:33N 38°51' E 001°49'2322.7
2014-Dec-12 06:33N 39°12' E 002°01'2323.0
2014-Dec-12 05:33N 39°33' E 002°13'2222.4
2014-Dec-12 04:33N 39°54' E 002°23'2222.3
2014-Dec-12 03:33N 40°14' E 002°33'2322.8
2014-Dec-12 02:33N 40°36' E 002°44'2322.6
2014-Dec-12 01:33N 40°57' E 002°55'9323.3
2014-Dec-11 21:33N 42°24' E 003°39'2121.0
2014-Dec-11 20:33N 42°42' E 003°54'2222.4
2014-Dec-11 19:33N 42°50' E 004°23'2221.7
2014-Dec-11 18:34N 42°60' E 004°49'2222.5
2014-Dec-11 17:34N 43°13' E 005°14'8 7.4
2014-Dec-11 16:31N 43°18' E 005°22'0 0.0
2014-Dec-11 15:31N 43°18' E 005°22'0 0.0
2014-Dec-11 14:31N 43°18' E 005°22'0 0.0
2014-Dec-11 13:31N 43°18' E 005°22'0 0.0
2014-Dec-11 12:31N 43°18' E 005°22'0 0.0
2014-Dec-11 11:31N 43°18' E 005°22'0 0.0
2014-Dec-11 10:31N 43°18' E 005°22'0 0.0
2014-Dec-11 09:31N 43°18' E 005°22'0 0.0
2014-Dec-11 08:31N 43°18' E 005°22'0 0.0
2014-Dec-11 07:31N 43°18' E 005°22'0 0.0
2014-Dec-11 06:31N 43°18' E 005°22'0 0.0
2014-Dec-11 05:31N 43°18' E 005°22'0 0.0
2014-Dec-11 04:30N 43°18' E 005°22'0 0.0
2014-Dec-11 03:30N 43°18' E 005°22'0 0.0
2014-Dec-11 02:30N 43°18' E 005°22'0 0.0
2014-Dec-11 01:24N 43°18' E 005°22'0 0.0
2014-Dec-11 00:33N 43°18' E 005°22'  
Track history (hours):
 
Tides and Currents Weather Stations Pressure Air Temp Water Temp Dewpoint Dewpoint Depression Visibility Wind Speed Wind Dir Waves Ship Positions

El-djazair II

Last reported at 2014-Dec-21 00:32 UTC. Time now 2014-Dec-21 19:28 UTC.
Position N 37°49' W 000°20'.

Length 146 m; draft 6.3 m.

Type: Ship. MMSI: 605026190.

Date/timePositionNaut miles runAvg speedWind from/ knotsBaromVisibWave heightAir tempDewpointWater temp
2014-Dec-21 00:32N 37°49' W 000°20'13 0.6
2014-Dec-20 01:33N 38°02' W 000°22'2222.2
2014-Dec-20 00:33N 37°40' W 000°24'2322.3
2014-Dec-19 23:32N 37°17' W 000°26'2222.9
2014-Dec-19 22:33N 36°55' W 000°29'2322.9
2014-Dec-19 21:33N 36°32' W 000°32'2522.9
2014-Dec-19 20:29N 36°07' W 000°34'114 2.8
2014-Dec-18 04:33N 37°59' W 000°08'2420.3
2014-Dec-18 03:24N 37°36' W 000°13'  
2014-Dec-15 23:20N 37°37' W 000°26'1620.7
2014-Dec-15 22:34N 37°53' W 000°24'13 0.7
2014-Dec-15 04:23N 38°00' W 000°10'1721.0
2014-Dec-15 03:33N 37°45' W 000°21'2020.0
2014-Dec-15 02:33N 37°29' W 000°37'2020.1
2014-Dec-15 01:33N 37°17' W 000°56'  
2014-Dec-12 07:33N 38°51' E 001°49'2322.7
2014-Dec-12 06:33N 39°12' E 002°01'2323.0
2014-Dec-12 05:33N 39°33' E 002°13'2222.4
2014-Dec-12 04:33N 39°54' E 002°23'2222.3
2014-Dec-12 03:33N 40°14' E 002°33'2322.8
2014-Dec-12 02:33N 40°36' E 002°44'2322.6
2014-Dec-12 01:33N 40°57' E 002°55'9323.3
2014-Dec-11 21:33N 42°24' E 003°39'2121.0
2014-Dec-11 20:33N 42°42' E 003°54'2222.4
2014-Dec-11 19:33N 42°50' E 004°23'2221.7
2014-Dec-11 18:34N 42°60' E 004°49'2222.5
2014-Dec-11 17:34N 43°13' E 005°14'8 7.4
2014-Dec-11 16:31N 43°18' E 005°22'0 0.0
2014-Dec-11 15:31N 43°18' E 005°22'0 0.0
2014-Dec-11 14:31N 43°18' E 005°22'0 0.0
2014-Dec-11 13:31N 43°18' E 005°22'0 0.0
2014-Dec-11 12:31N 43°18' E 005°22'0 0.0
2014-Dec-11 11:31N 43°18' E 005°22'0 0.0
2014-Dec-11 10:31N 43°18' E 005°22'0 0.0
2014-Dec-11 09:31N 43°18' E 005°22'0 0.0
2014-Dec-11 08:31N 43°18' E 005°22'0 0.0
2014-Dec-11 07:31N 43°18' E 005°22'0 0.0
2014-Dec-11 06:31N 43°18' E 005°22'0 0.0
2014-Dec-11 05:31N 43°18' E 005°22'0 0.0
2014-Dec-11 04:30N 43°18' E 005°22'0 0.0
2014-Dec-11 03:30N 43°18' E 005°22'0 0.0
2014-Dec-11 02:30N 43°18' E 005°22'0 0.0
2014-Dec-11 01:24N 43°18' E 005°22'0 0.0
2014-Dec-11 00:33N 43°18' E 005°22'  

Dump ship's entire track history